Time;durP1;ratioP1;P1;durP2;ratioP2;P2;SDS_P1;SDS_P2;PMS_P1;PMS_P2;Temp;Humidity;BMP_temperature;BMP_pressure;BME280_temperature;BME280_humidity;BME280_pressure;Samples;Min_cycle;Max_cycle;Signal;HPM_P1;HPM_P2
2022/04/22 00:01:49;;;;;;;0.00;0.00;;;12.20;59.50;;;;;;4150196;28;20084;-73
2022/04/22 00:04:15;;;;;;;0.00;0.00;;;12.20;59.40;;;;;;4164059;28;20060;-73
2022/04/22 00:06:37;;;;;;;0.00;0.00;;;12.20;59.50;;;;;;4167848;28;20064;-73
2022/04/22 00:09:17;;;;;;;0.00;0.00;;;12.20;59.60;;;;;;4166869;28;20076;-72
2022/04/22 00:11:39;;;;;;;0.00;0.00;;;12.20;59.60;;;;;;4168070;28;20080;-72
2022/04/22 00:14:04;;;;;;;0.00;0.00;;;12.20;59.60;;;;;;4153761;28;20495;-74
2022/04/22 00:16:31;;;;;;;0.00;0.00;;;12.30;59.60;;;;;;4153803;28;20119;-71
2022/04/22 00:18:59;;;;;;;0.00;0.00;;;12.20;59.50;;;;;;4153985;28;20053;-71
2022/04/22 00:21:41;;;;;;;0.00;0.00;;;12.00;60.00;;;;;;4155331;28;20054;-71
2022/04/22 00:24:13;;;;;;;0.00;0.00;;;12.00;60.20;;;;;;4165820;28;20044;-73
2022/04/22 00:26:39;;;;;;;0.00;0.00;;;12.00;60.10;;;;;;4166872;28;20095;-71
2022/04/22 00:29:01;;;;;;;0.00;0.00;;;12.00;60.20;;;;;;4166457;28;20073;-71
2022/04/22 00:31:28;;;;;;;0.00;0.00;;;11.90;60.50;;;;;;4153504;28;20698;-73
2022/04/22 00:34:05;;;;;;;0.00;0.00;;;11.80;61.00;;;;;;4167011;28;20073;-74
2022/04/22 00:36:38;;;;;;;0.00;0.00;;;11.60;61.50;;;;;;4167861;28;20045;-71
2022/04/22 00:39:06;;;;;;;0.00;0.00;;;11.50;61.80;;;;;;4153660;28;20076;-72
2022/04/22 00:41:28;;;;;;;0.00;0.00;;;11.60;61.50;;;;;;4152907;28;20388;-72
2022/04/22 00:43:56;;;;;;;0.00;0.00;;;11.70;61.70;;;;;;4166677;28;20056;-72
2022/04/22 00:46:20;;;;;;;0.00;0.00;;;11.60;61.70;;;;;;4166739;28;20059;-70
2022/04/22 00:48:44;;;;;;;0.00;0.00;;;11.70;61.30;;;;;;4152591;28;20370;-71
2022/04/22 00:51:09;;;;;;;0.00;0.00;;;11.80;61.10;;;;;;4166717;28;20041;-73
2022/04/22 00:53:56;;;;;;;0.00;0.00;;;11.90;60.90;;;;;;4166742;28;20526;-71
2022/04/22 00:56:35;;;;;;;0.00;0.00;;;12.10;60.50;;;;;;4154369;28;20096;-71
2022/04/22 00:59:02;;;;;;;0.00;0.00;;;12.20;60.30;;;;;;4166958;28;20060;-72
2022/04/22 01:01:41;;;;;;;0.00;0.00;;;12.10;60.90;;;;;;4171541;28;20076;-70
2022/04/22 01:10:05;;;;;;;0.00;0.00;;;11.80;61.60;;;;;;4170228;28;20046;-73
2022/04/22 01:12:39;;;;;;;0.00;0.00;;;11.90;61.30;;;;;;4168387;28;20072;-73
2022/04/22 01:15:16;;;;;;;0.00;0.00;;;12.00;61.00;;;;;;4170190;28;20390;-73
2022/04/22 01:17:48;;;;;;;0.00;0.00;;;12.10;60.70;;;;;;4182954;28;20114;-73
2022/04/22 01:20:13;;;;;;;0.00;0.00;;;12.10;60.50;;;;;;4168465;28;20478;-73
2022/04/22 01:22:36;;;;;;;0.00;0.00;;;12.20;60.40;;;;;;4182831;28;20095;-71
2022/04/22 01:25:03;;;;;;;0.00;0.00;;;12.20;60.40;;;;;;4181751;28;20131;-73
2022/04/22 01:27:38;;;;;;;0.00;0.00;;;12.20;60.40;;;;;;4169711;28;20481;-72
2022/04/22 01:30:07;;;;;;;0.00;0.00;;;12.20;60.20;;;;;;4168188;28;20042;-73
2022/04/22 01:32:29;;;;;;;0.00;0.00;;;12.20;60.20;;;;;;4168047;28;20049;-72
2022/04/22 01:34:54;;;;;;;0.00;0.00;;;12.10;60.30;;;;;;4154002;28;20062;-70
2022/04/22 01:37:16;;;;;;;0.00;0.00;;;12.10;60.50;;;;;;4140846;28;20092;-72
2022/04/22 01:39:40;;;;;;;0.00;0.00;;;11.90;60.70;;;;;;4154728;28;20064;-70
2022/04/22 01:42:06;;;;;;;0.00;0.00;;;11.60;61.50;;;;;;4154342;28;20449;-72
2022/04/22 01:44:28;;;;;;;0.00;0.00;;;11.50;62.00;;;;;;4154386;28;20341;-74
2022/04/22 01:46:50;;;;;;;0.00;0.00;;;11.50;61.90;;;;;;4153941;28;20476;-73
2022/04/22 01:49:12;;;;;;;0.00;0.00;;;11.60;61.90;;;;;;4167867;28;20046;-72
2022/04/22 01:51:34;;;;;;;0.00;0.00;;;11.70;61.70;;;;;;4167921;28;20107;-73
2022/04/22 01:53:56;;;;;;;0.00;0.00;;;11.70;61.70;;;;;;4154191;28;20049;-70
2022/04/22 01:56:21;;;;;;;0.00;0.00;;;11.60;61.80;;;;;;4167969;28;20379;-74
2022/04/22 01:58:45;;;;;;;0.00;0.00;;;11.50;62.30;;;;;;4167331;28;20045;-70
2022/04/22 02:01:07;;;;;;;0.00;0.00;;;11.20;63.40;;;;;;4154145;28;20072;-72
2022/04/22 02:03:31;;;;;;;0.00;0.00;;;11.00;64.00;;;;;;4167547;28;20049;-72
2022/04/22 02:05:53;;;;;;;0.00;0.00;;;10.80;64.50;;;;;;4167739;28;20121;-73
2022/04/22 02:08:16;;;;;;;0.00;0.00;;;11.00;64.30;;;;;;4167625;28;20053;-71
2022/04/22 02:10:40;;;;;;;0.00;0.00;;;11.00;64.00;;;;;;4167667;28;20120;-75
2022/04/22 02:13:03;;;;;;;0.00;0.00;;;11.10;63.80;;;;;;4181069;28;20498;-72
2022/04/22 02:15:26;;;;;;;0.00;0.00;;;11.10;63.80;;;;;;4167544;28;20107;-71
2022/04/22 02:17:48;;;;;;;0.00;0.00;;;10.90;64.40;;;;;;4153844;28;20107;-72
2022/04/22 02:20:11;;;;;;;0.00;0.00;;;10.80;65.10;;;;;;4154036;28;20399;-74
2022/04/22 02:22:34;;;;;;;0.00;0.00;;;10.70;65.30;;;;;;4167403;28;20103;-70
2022/04/22 02:24:57;;;;;;;0.00;0.00;;;10.70;65.70;;;;;;4153179;28;20049;-71
2022/04/22 02:30:04;;;;;;;0.00;0.00;;;11.00;64.50;;;;;;4167379;28;20076;-74
2022/04/22 02:32:31;;;;;;;0.00;0.00;;;11.00;64.40;;;;;;4153649;28;20054;-75
2022/04/22 02:34:59;;;;;;;0.00;0.00;;;11.10;64.10;;;;;;4153063;28;20133;-70
2022/04/22 02:37:21;;;;;;;0.00;0.00;;;11.20;63.90;;;;;;4167196;28;20052;-74
2022/04/22 02:39:48;;;;;;;0.00;0.00;;;11.10;64.00;;;;;;4153582;28;20132;-72
2022/04/22 02:47:35;;;;;;;0.00;0.00;;;11.20;64.00;;;;;;4167208;28;20056;-73
2022/04/22 02:49:59;;;;;;;0.00;0.00;;;11.10;64.30;;;;;;4166998;28;20041;-73
2022/04/22 02:52:21;;;;;;;0.00;0.00;;;11.00;64.40;;;;;;4167104;28;20073;-71
2022/04/22 02:54:43;;;;;;;0.00;0.00;;;11.00;64.40;;;;;;4152902;28;20054;-72
2022/04/22 02:57:11;;;;;;;0.00;0.00;;;11.00;64.80;;;;;;4139977;28;20073;-70
2022/04/22 02:59:39;;;;;;;0.00;0.00;;;11.00;64.80;;;;;;4152811;28;20539;-72
2022/04/22 03:02:04;;;;;;;0.00;0.00;;;11.00;64.80;;;;;;4166852;28;20107;-71
2022/04/22 03:04:26;;;;;;;0.00;0.00;;;11.00;64.70;;;;;;4153245;28;20049;-74
2022/04/22 03:06:51;;;;;;;0.00;0.00;;;10.80;65.00;;;;;;4166101;28;20127;-73
2022/04/22 03:09:13;;;;;;;0.00;0.00;;;10.80;65.40;;;;;;4166801;28;20081;-72
2022/04/22 03:11:35;;;;;;;0.00;0.00;;;10.70;65.70;;;;;;4166704;28;20045;-73
2022/04/22 03:13:57;;;;;;;0.00;0.00;;;10.60;66.30;;;;;;4153007;28;20058;-73
2022/04/22 03:16:23;;;;;;;0.00;0.00;;;10.70;66.10;;;;;;4166682;28;20059;-71
2022/04/22 03:18:45;;;;;;;0.00;0.00;;;10.70;65.70;;;;;;4167076;28;20128;-70
2022/04/22 03:21:07;;;;;;;0.00;0.00;;;10.70;66.00;;;;;;4167860;28;20132;-72
2022/04/22 03:23:34;;;;;;;0.00;0.00;;;10.70;66.00;;;;;;4146277;28;20523;-73
2022/04/22 03:25:59;;;;;;;0.00;0.00;;;10.70;66.20;;;;;;4159565;28;20487;-71
2022/04/22 03:28:26;;;;;;;0.00;0.00;;;10.70;66.30;;;;;;4156498;28;20056;-74
2022/04/22 03:30:51;;;;;;;0.00;0.00;;;10.60;66.40;;;;;;4152822;28;20375;-74
2022/04/22 03:33:13;;;;;;;0.00;0.00;;;10.40;67.20;;;;;;4167178;28;20092;-74
2022/04/22 03:35:38;;;;;;;0.00;0.00;;;10.30;67.60;;;;;;4141508;28;20081;-72
2022/04/22 03:38:02;;;;;;;0.00;0.00;;;10.30;67.70;;;;;;4141017;28;20140;-73
2022/04/22 03:40:26;;;;;;;0.00;0.00;;;10.40;67.60;;;;;;4168542;28;20057;-75
2022/04/22 03:42:49;;;;;;;0.00;0.00;;;10.40;67.40;;;;;;4152626;28;20140;-71
2022/04/22 03:45:11;;;;;;;0.00;0.00;;;10.50;67.10;;;;;;4153034;28;20077;-71
2022/04/22 03:47:33;;;;;;;0.00;0.00;;;10.50;67.00;;;;;;4166481;28;20055;-72
2022/04/22 03:49:56;;;;;;;0.00;0.00;;;10.40;67.30;;;;;;4152943;28;20184;-71
2022/04/22 03:52:18;;;;;;;0.00;0.00;;;10.40;67.60;;;;;;4166500;28;20052;-72
2022/04/22 03:54:40;;;;;;;0.00;0.00;;;10.40;67.80;;;;;;4125511;28;20448;-74
2022/04/22 03:59:45;;;;;;;0.00;0.00;;;10.50;67.20;;;;;;4166434;28;20064;-76
2022/04/22 04:02:07;;;;;;;0.00;0.00;;;10.60;66.90;;;;;;4152928;28;20046;-70
2022/04/22 04:04:30;;;;;;;0.00;0.00;;;10.70;66.90;;;;;;4153213;28;20045;-71
2022/04/22 04:06:52;;;;;;;0.00;0.00;;;10.70;66.90;;;;;;4166209;28;20041;-71
2022/04/22 04:17:20;;;;;;;0.00;0.00;;;10.70;66.80;;;;;;4166209;28;20042;-73
2022/04/22 04:25:10;;;;;;;0.00;0.00;;;10.50;67.30;;;;;;4166175;28;20056;-72
2022/04/22 04:27:32;;;;;;;0.00;0.00;;;10.50;67.40;;;;;;4153014;28;20057;-72
2022/04/22 04:29:57;;;;;;;0.00;0.00;;;10.40;67.50;;;;;;4166588;28;20076;-75
2022/04/22 04:32:21;;;;;;;0.00;0.00;;;10.40;67.90;;;;;;4166714;28;20080;-73
2022/04/22 04:34:44;;;;;;;0.00;0.00;;;10.30;68.00;;;;;;4166223;28;20042;-72
2022/04/22 04:37:07;;;;;;;0.00;0.00;;;10.40;68.00;;;;;;4166768;28;20455;-72
2022/04/22 04:39:29;;;;;;;0.00;0.00;;;10.40;67.90;;;;;;4166712;28;20448;-70
2022/04/22 04:41:53;;;;;;;0.00;0.00;;;10.30;68.20;;;;;;4166472;28;20069;-72
2022/04/22 04:44:15;;;;;;;0.00;0.00;;;10.30;68.50;;;;;;4152588;28;20499;-72
2022/04/22 04:46:37;;;;;;;0.00;0.00;;;10.20;68.70;;;;;;4139477;28;20061;-70
2022/04/22 04:49:01;;;;;;;0.00;0.00;;;10.20;69.00;;;;;;4152223;28;20058;-73
2022/04/22 04:51:23;;;;;;;0.00;0.00;;;10.20;69.20;;;;;;4153823;28;20084;-72
2022/04/22 04:53:45;;;;;;;0.00;0.00;;;10.30;69.30;;;;;;4169465;28;20116;-73
2022/04/22 04:56:08;;;;;;;0.00;0.00;;;10.30;69.10;;;;;;4169620;28;20064;-74
2022/04/22 04:58:29;;;;;;;0.00;0.00;;;10.40;69.10;;;;;;4155549;28;20571;-72
2022/04/22 05:00:54;;;;;;;0.00;0.00;;;10.50;68.90;;;;;;4168836;28;20057;-74
2022/04/22 05:03:23;;;;;;;0.00;0.00;;;10.60;68.70;;;;;;4170427;28;20111;-74
2022/04/22 05:05:45;;;;;;;0.00;0.00;;;10.40;69.10;;;;;;4171634;28;20064;-71
2022/04/22 05:08:08;;;;;;;0.00;0.00;;;10.40;69.00;;;;;;4158560;28;20057;-73
2022/04/22 05:10:33;;;;;;;0.00;0.00;;;10.50;68.90;;;;;;4172041;28;20075;-72
2022/04/22 05:12:59;;;;;;;0.00;0.00;;;10.50;68.90;;;;;;4143996;28;20058;-72
2022/04/22 05:15:24;;;;;;;0.00;0.00;;;10.50;68.90;;;;;;4156996;28;20476;-73
2022/04/22 05:17:49;;;;;;;0.00;0.00;;;10.50;69.00;;;;;;4169397;28;20060;-71
2022/04/22 05:20:13;;;;;;;0.00;0.00;;;10.50;69.00;;;;;;4168851;28;20103;-70
2022/04/22 05:22:37;;;;;;;0.00;0.00;;;10.50;69.10;;;;;;4169048;28;20048;-74
2022/04/22 05:25:01;;;;;;;0.00;0.00;;;10.50;69.00;;;;;;4141321;28;20050;-71
2022/04/22 05:27:25;;;;;;;0.00;0.00;;;10.50;69.00;;;;;;4168730;28;20060;-71
2022/04/22 05:32:37;;;;;;;0.00;0.00;;;10.60;68.90;;;;;;4154730;28;20081;-69
2022/04/22 05:35:04;;;;;;;0.00;0.00;;;10.70;68.90;;;;;;4168119;28;20049;-69
2022/04/22 05:37:26;;;;;;;0.00;0.00;;;10.80;69.00;;;;;;4141205;28;20049;-71
2022/04/22 05:39:50;;;;;;;0.00;0.00;;;10.90;68.90;;;;;;4154870;28;20050;-70
2022/04/22 05:42:12;;;;;;;0.00;0.00;;;11.00;68.60;;;;;;4154610;28;20112;-73
2022/04/22 05:44:34;;;;;;;0.00;0.00;;;11.10;68.70;;;;;;4154697;28;20054;-69
2022/04/22 05:46:59;;;;;;;0.00;0.00;;;11.20;68.40;;;;;;4140706;28;20144;-71
2022/04/22 05:49:27;;;;;;;0.00;0.00;;;11.30;68.10;;;;;;4168273;28;20041;-69
2022/04/22 05:51:49;;;;;;;0.00;0.00;;;11.20;68.10;;;;;;4154542;28;20061;-71
2022/04/22 05:54:13;;;;;;;0.00;0.00;;;11.30;68.00;;;;;;4154540;28;20057;-68
2022/04/22 05:56:37;;;;;;;0.00;0.00;;;11.50;67.70;;;;;;4154664;28;20531;-71
2022/04/22 05:59:02;;;;;;;0.00;0.00;;;11.60;67.30;;;;;;4167968;28;20049;-70
2022/04/22 06:01:26;;;;;;;0.00;0.00;;;11.70;67.00;;;;;;4154307;28;20064;-69
2022/04/22 06:03:51;;;;;;;0.00;0.00;;;11.80;66.80;;;;;;4167395;28;20145;-70
2022/04/22 06:06:15;;;;;;;0.00;0.00;;;11.80;66.60;;;;;;4168173;28;20044;-68
2022/04/22 06:11:22;;;;;;;0.00;0.00;;;11.60;66.50;;;;;;4167665;28;20069;-68
2022/04/22 06:13:47;;;;;;;0.00;0.00;;;11.60;67.00;;;;;;4168134;28;20076;-71
2022/04/22 06:16:16;;;;;;;0.00;0.00;;;11.80;66.80;;;;;;4153736;28;20060;-67
2022/04/22 06:18:40;;;;;;;0.00;0.00;;;11.60;66.90;;;;;;4167796;28;20052;-68
2022/04/22 06:21:04;;;;;;;0.00;0.00;;;11.60;67.20;;;;;;4140364;28;20053;-68
2022/04/22 06:23:27;;;;;;;0.00;0.00;;;11.60;67.20;;;;;;4154233;28;20449;-70
2022/04/22 06:25:51;;;;;;;0.00;0.00;;;11.60;67.40;;;;;;4181572;28;20570;-71
2022/04/22 06:28:15;;;;;;;0.00;0.00;;;11.60;67.40;;;;;;4152197;28;20054;-69
2022/04/22 06:30:38;;;;;;;0.00;0.00;;;11.80;67.00;;;;;;4167563;28;20034;-68
2022/04/22 06:33:03;;;;;;;0.00;0.00;;;11.80;66.70;;;;;;4153732;28;20136;-70
2022/04/22 06:35:26;;;;;;;0.00;0.00;;;11.80;66.90;;;;;;4167632;28;20048;-72
2022/04/22 06:37:52;;;;;;;0.00;0.00;;;12.00;66.60;;;;;;4153864;28;20056;-69
2022/04/22 06:45:48;;;;;;;0.00;0.00;;;12.30;65.60;;;;;;4142593;28;20513;-71
2022/04/22 06:48:25;;;;;;;0.00;0.00;;;12.40;65.40;;;;;;4166967;28;20046;-67
2022/04/22 06:51:07;;;;;;;0.00;0.00;;;12.30;65.20;;;;;;4166789;28;20034;-70
2022/04/22 06:53:30;;;;;;;0.00;0.00;;;12.20;65.60;;;;;;4167327;28;20487;-70
2022/04/22 06:55:53;;;;;;;0.00;0.00;;;12.30;65.70;;;;;;4153688;28;20502;-68
2022/04/22 06:58:20;;;;;;;0.00;0.00;;;12.30;65.50;;;;;;4139905;28;20039;-68
2022/04/22 07:00:44;;;;;;;0.00;0.00;;;12.20;65.70;;;;;;4166535;28;20057;-69
2022/04/22 07:03:09;;;;;;;0.00;0.00;;;12.20;65.70;;;;;;4167788;28;20045;-71
2022/04/22 07:05:33;;;;;;;0.00;0.00;;;12.30;65.80;;;;;;4166982;28;20041;-69
2022/04/22 07:07:56;;;;;;;0.00;0.00;;;12.40;66.20;;;;;;4136870;28;20042;-71
2022/04/22 07:10:22;;;;;;;0.00;0.00;;;12.50;65.30;;;;;;4153730;28;20062;-69
2022/04/22 07:12:44;;;;;;;0.00;0.00;;;12.40;65.20;;;;;;4166498;28;20076;-70
2022/04/22 07:15:07;;;;;;;0.00;0.00;;;12.60;65.30;;;;;;4167215;28;20541;-68
2022/04/22 07:17:34;;;;;;;0.00;0.00;;;12.50;65.40;;;;;;4166961;28;20427;-71
2022/04/22 07:20:00;;;;;;;0.00;0.00;;;12.50;65.50;;;;;;4153247;28;20118;-70
2022/04/22 07:22:27;;;;;;;0.00;0.00;;;12.60;65.40;;;;;;4153969;28;20500;-70
2022/04/22 07:24:49;;;;;;;0.00;0.00;;;12.60;65.30;;;;;;4152797;28;20088;-68
2022/04/22 07:27:14;;;;;;;0.00;0.00;;;12.60;65.30;;;;;;4166963;28;20107;-70
2022/04/22 07:29:41;;;;;;;0.00;0.00;;;12.50;65.30;;;;;;4152959;28;20052;-69
2022/04/22 07:32:06;;;;;;;0.00;0.00;;;12.10;66.50;;;;;;4166865;28;20046;-69
2022/04/22 07:34:30;;;;;;;0.00;0.00;;;12.10;67.10;;;;;;4153105;28;20053;-70
2022/04/22 07:36:53;;;;;;;0.00;0.00;;;12.30;66.60;;;;;;4153044;28;20053;-67
2022/04/22 07:39:15;;;;;;;0.00;0.00;;;12.20;66.30;;;;;;4153028;28;20108;-68
2022/04/22 07:41:38;;;;;;;0.00;0.00;;;12.10;66.90;;;;;;4153338;28;20055;-69
2022/04/22 07:46:58;;;;;;;0.00;0.00;;;12.70;66.60;;;;;;4166501;28;20060;-70
2022/04/22 07:49:23;;;;;;;0.00;0.00;;;12.80;65.70;;;;;;4154694;28;20052;-68
2022/04/22 07:51:45;;;;;;;0.00;0.00;;;13.10;65.50;;;;;;4166706;28;20045;-70
2022/04/22 07:54:09;;;;;;;0.00;0.00;;;13.20;65.10;;;;;;4166733;28;20088;-72
2022/04/22 07:56:33;;;;;;;0.00;0.00;;;13.00;64.40;;;;;;4153867;28;20046;-71
2022/04/22 07:58:58;;;;;;;0.00;0.00;;;12.70;65.30;;;;;;4153532;28;20061;-72
2022/04/22 08:01:20;;;;;;;0.00;0.00;;;12.50;65.70;;;;;;4157944;28;20053;-69
2022/04/22 08:03:44;;;;;;;0.00;0.00;;;12.60;65.80;;;;;;4169858;28;20045;-67
2022/04/22 08:06:10;;;;;;;0.00;0.00;;;12.70;65.60;;;;;;4170368;28;20095;-69
2022/04/22 08:08:36;;;;;;;0.00;0.00;;;12.60;65.60;;;;;;4170171;28;20041;-71
2022/04/22 08:11:03;;;;;;;0.00;0.00;;;12.40;65.90;;;;;;4182736;28;20064;-71
2022/04/22 08:13:26;;;;;;;0.00;0.00;;;12.50;65.80;;;;;;4171284;28;20052;-71
2022/04/22 08:15:50;;;;;;;0.00;0.00;;;12.50;65.30;;;;;;4169770;28;20419;-70
2022/04/22 08:18:17;;;;;;;0.00;0.00;;;12.60;64.90;;;;;;4169500;28;20371;-71
2022/04/22 08:20:42;;;;;;;0.00;0.00;;;12.60;64.80;;;;;;4168982;28;20041;-68
2022/04/22 08:23:06;;;;;;;0.00;0.00;;;12.70;64.60;;;;;;4168701;28;20060;-70
2022/04/22 08:25:31;;;;;;;0.00;0.00;;;12.70;64.80;;;;;;4183021;28;20280;-68
2022/04/22 08:27:55;;;;;;;0.00;0.00;;;12.70;64.40;;;;;;4175739;28;20076;-72
2022/04/22 08:30:17;;;;;;;0.00;0.00;;;12.60;64.80;;;;;;4169741;28;20470;-71
2022/04/22 08:32:39;;;;;;;0.00;0.00;;;12.60;65.00;;;;;;4169053;28;20045;-68
2022/04/22 08:35:02;;;;;;;0.00;0.00;;;12.60;65.00;;;;;;4169544;28;20485;-71
2022/04/22 08:37:28;;;;;;;0.00;0.00;;;12.70;65.20;;;;;;4169484;28;20053;-71
2022/04/22 08:39:50;;;;;;;0.00;0.00;;;12.80;65.30;;;;;;4142406;28;20442;-70
2022/04/22 08:42:23;;;;;;;0.00;0.00;;;12.70;65.70;;;;;;4169386;28;20365;-71
2022/04/22 08:44:58;;;;;;;0.00;0.00;;;12.40;66.80;;;;;;4168870;28;20399;-70
2022/04/22 08:50:16;;;;;;;0.00;0.00;;;13.10;66.20;;;;;;4169162;28;20209;-71
2022/04/22 08:52:42;;;;;;;0.00;0.00;;;13.10;66.20;;;;;;4155439;28;20046;-68
2022/04/22 08:55:06;;;;;;;0.00;0.00;;;13.20;66.10;;;;;;4168764;28;20048;-70
2022/04/22 08:57:31;;;;;;;0.00;0.00;;;13.40;64.90;;;;;;4169089;28;20046;-67
2022/04/22 09:00:01;;;;;;;0.00;0.00;;;13.70;64.50;;;;;;4152730;28;20057;-68
2022/04/22 09:02:29;;;;;;;0.00;0.00;;;13.60;64.80;;;;;;4152520;28;20107;-69
2022/04/22 09:04:52;;;;;;;0.00;0.00;;;13.30;64.50;;;;;;4152325;28;20077;-67
2022/04/22 09:07:18;;;;;;;0.00;0.00;;;13.40;64.80;;;;;;4152727;28;20069;-68
2022/04/22 09:09:41;;;;;;;0.00;0.00;;;13.30;64.10;;;;;;4152902;28;20088;-71
2022/04/22 09:12:13;;;;;;;0.00;0.00;;;13.50;64.50;;;;;;4166413;28;20038;-68
2022/04/22 09:14:35;;;;;;;0.00;0.00;;;13.80;64.10;;;;;;4152368;28;20381;-71
2022/04/22 09:17:01;;;;;;;0.00;0.00;;;14.10;63.70;;;;;;4165481;28;20367;-70
2022/04/22 09:19:23;;;;;;;0.00;0.00;;;13.80;63.90;;;;;;4152336;28;20125;-69
2022/04/22 09:22:03;;;;;;;0.00;0.00;;;14.00;64.50;;;;;;4152466;28;20049;-69
2022/04/22 09:24:25;;;;;;;0.00;0.00;;;14.30;63.40;;;;;;4177805;28;20477;-69
2022/04/22 09:27:12;;;;;;;0.00;0.00;;;14.60;62.90;;;;;;4153218;28;20057;-68
2022/04/22 09:29:51;;;;;;;0.00;0.00;;;14.80;61.90;;;;;;4152492;28;20065;-72
2022/04/22 09:32:25;;;;;;;0.00;0.00;;;14.80;61.60;;;;;;4152102;28;20081;-71
2022/04/22 09:34:50;;;;;;;0.00;0.00;;;14.90;61.40;;;;;;4151704;28;20045;-68
2022/04/22 09:42:48;;;;;;;0.00;0.00;;;14.50;61.60;;;;;;4151691;28;20057;-70
2022/04/22 09:45:13;;;;;;;0.00;0.00;;;14.50;61.60;;;;;;4152260;28;20108;-69
2022/04/22 09:47:40;;;;;;;0.00;0.00;;;14.00;63.00;;;;;;4166180;28;20459;-69
2022/04/22 09:50:05;;;;;;;0.00;0.00;;;14.20;63.30;;;;;;4165684;28;20045;-68
2022/04/22 09:52:32;;;;;;;0.00;0.00;;;14.30;62.90;;;;;;4152138;28;20053;-67
2022/04/22 09:55:01;;;;;;;0.00;0.00;;;14.70;62.20;;;;;;4165257;28;20045;-68
2022/04/22 09:57:48;;;;;;;0.00;0.00;;;14.60;62.30;;;;;;4152134;28;20108;-67
2022/04/22 10:00:11;;;;;;;0.00;0.00;;;14.60;62.10;;;;;;4149290;28;20063;-69
2022/04/22 10:02:33;;;;;;;0.00;0.00;;;14.80;62.20;;;;;;4149163;28;20037;-69
2022/04/22 10:04:57;;;;;;;0.00;0.00;;;14.90;62.40;;;;;;4148534;28;20050;-67
2022/04/22 10:07:22;;;;;;;0.00;0.00;;;15.10;61.90;;;;;;4148839;28;20069;-68
2022/04/22 10:09:47;;;;;;;0.00;0.00;;;15.30;62.00;;;;;;4135401;28;20426;-69
2022/04/22 10:12:12;;;;;;;0.00;0.00;;;15.50;60.80;;;;;;4138209;28;20037;-68
2022/04/22 10:14:44;;;;;;;0.00;0.00;;;15.50;60.50;;;;;;4165264;28;20045;-69
2022/04/22 10:17:07;;;;;;;0.00;0.00;;;15.10;60.00;;;;;;4137672;28;20050;-68
2022/04/22 10:19:32;;;;;;;0.00;0.00;;;14.90;61.20;;;;;;4151367;28;20049;-68
2022/04/22 10:21:55;;;;;;;0.00;0.00;;;15.30;61.10;;;;;;4137973;28;20058;-71
2022/04/22 10:24:19;;;;;;;0.00;0.00;;;15.70;60.30;;;;;;4138269;28;20046;-69
2022/04/22 10:26:44;;;;;;;0.00;0.00;;;15.60;60.10;;;;;;4151706;28;20468;-68
2022/04/22 10:29:10;;;;;;;0.00;0.00;;;15.90;60.50;;;;;;4165433;28;20334;-71
2022/04/22 10:31:33;;;;;;;0.00;0.00;;;16.10;59.80;;;;;;4162074;28;20050;-67
2022/04/22 10:34:07;;;;;;;0.00;0.00;;;16.10;59.20;;;;;;4135253;28;20130;-69
2022/04/22 10:36:32;;;;;;;0.00;0.00;;;15.90;60.40;;;;;;4170730;28;20117;-68
2022/04/22 10:38:58;;;;;;;0.00;0.00;;;16.10;59.70;;;;;;4139843;28;20081;-69
2022/04/22 10:41:22;;;;;;;0.00;0.00;;;16.30;59.70;;;;;;4151458;28;20041;-71
2022/04/22 10:47:14;;;;;;;0.00;0.00;;;15.80;61.00;;;;;;4163806;28;20427;-68
2022/04/22 10:49:39;;;;;;;0.00;0.00;;;15.50;61.30;;;;;;4163564;28;20037;-68
2022/04/22 10:52:17;;;;;;;0.00;0.00;;;15.50;61.30;;;;;;4178333;28;20075;-67
2022/04/22 10:54:54;;;;;;;0.00;0.00;;;15.80;60.10;;;;;;4161359;28;20049;-69
2022/04/22 10:57:23;;;;;;;0.00;0.00;;;16.20;59.70;;;;;;4163314;28;20479;-69
2022/04/22 10:59:46;;;;;;;0.00;0.00;;;16.40;59.10;;;;;;4174185;28;20049;-68
2022/04/22 11:02:31;;;;;;;0.00;0.00;;;16.70;58.80;;;;;;4150491;28;20084;-68
2022/04/22 11:05:19;;;;;;;0.00;0.00;;;17.00;58.20;;;;;;4163946;28;20171;-69
2022/04/22 11:07:50;;;;;;;0.00;0.00;;;16.80;57.10;;;;;;4149893;28;20096;-71
2022/04/22 11:10:12;;;;;;;0.00;0.00;;;16.50;58.70;;;;;;4146423;28;20053;-70
2022/04/22 11:13:00;;;;;;;0.00;0.00;;;16.20;58.50;;;;;;4119167;28;20481;-69
2022/04/22 11:15:43;;;;;;;0.00;0.00;;;16.30;59.70;;;;;;4117986;28;20058;-70
2022/04/22 11:18:08;;;;;;;0.00;0.00;;;16.30;57.60;;;;;;4136344;28;20042;-67
2022/04/22 11:20:35;;;;;;;0.00;0.00;;;16.20;59.00;;;;;;4124761;28;20088;-70
2022/04/22 11:22:58;;;;;;;0.00;0.00;;;16.60;58.50;;;;;;4137965;28;20049;-68
2022/04/22 11:25:24;;;;;;;0.00;0.00;;;16.80;58.20;;;;;;4120057;28;20065;-69
2022/04/22 11:27:46;;;;;;;0.00;0.00;;;16.90;58.10;;;;;;4134572;28;20042;-69
2022/04/22 11:30:11;;;;;;;0.00;0.00;;;17.00;57.40;;;;;;4133769;28;20042;-69
2022/04/22 11:32:45;;;;;;;0.00;0.00;;;17.00;57.60;;;;;;4120310;28;20050;-71
2022/04/22 11:35:18;;;;;;;0.00;0.00;;;17.20;57.70;;;;;;4132314;28;20477;-71
2022/04/22 11:37:43;;;;;;;0.00;0.00;;;17.30;57.20;;;;;;4151878;28;20369;-67
2022/04/22 11:40:08;;;;;;;0.00;0.00;;;17.20;57.20;;;;;;4129996;28;20041;-71
2022/04/22 11:42:43;;;;;;;0.00;0.00;;;16.90;57.50;;;;;;4136178;28;20441;-70
2022/04/22 11:45:14;;;;;;;0.00;0.00;;;16.80;57.50;;;;;;4140928;28;20507;-69
2022/04/22 11:47:36;;;;;;;0.00;0.00;;;16.70;57.50;;;;;;4143449;28;20066;-68
2022/04/22 11:49:59;;;;;;;0.00;0.00;;;16.90;57.20;;;;;;4117284;28;20122;-68
2022/04/22 11:52:22;;;;;;;0.00;0.00;;;17.00;57.00;;;;;;4131334;28;20082;-67
2022/04/22 11:54:52;;;;;;;0.00;0.00;;;17.30;56.80;;;;;;4117817;28;20050;-68
2022/04/22 11:57:19;;;;;;;0.00;0.00;;;17.60;56.50;;;;;;4130872;28;20516;-69
2022/04/22 12:05:31;;;;;;;0.00;0.00;;;17.80;56.50;;;;;;4134462;28;20088;-71
2022/04/22 12:05:32;;;;;;;0.00;0.00;;;17.70;56.20;;;;;;4163984;28;20271;-69
2022/04/22 12:08:05;;;;;;;0.00;0.00;;;17.70;55.50;;;;;;4164065;28;20053;-68
2022/04/22 12:10:29;;;;;;;0.00;0.00;;;17.40;55.70;;;;;;4170160;28;20049;-69
2022/04/22 12:12:54;;;;;;;0.00;0.00;;;17.50;55.40;;;;;;4167182;28;20053;-68
2022/04/22 12:15:21;;;;;;;0.00;0.00;;;17.60;54.80;;;;;;4153088;28;20045;-70
2022/04/22 12:17:45;;;;;;;0.00;0.00;;;17.90;54.30;;;;;;4153778;28;20086;-71
2022/04/22 12:20:09;;;;;;;0.00;0.00;;;18.00;53.70;;;;;;4153445;28;20054;-68
2022/04/22 12:22:32;;;;;;;0.00;0.00;;;18.20;53.50;;;;;;4166873;28;20053;-68
2022/04/22 12:25:19;;;;;;;0.00;0.00;;;18.30;52.90;;;;;;4153119;28;20072;-68
2022/04/22 12:27:43;;;;;;;0.00;0.00;;;18.20;52.30;;;;;;4166378;28;20037;-73
2022/04/22 12:30:16;;;;;;;0.00;0.00;;;18.30;52.60;;;;;;4153424;28;20407;-67
2022/04/22 12:32:51;;;;;;;0.00;0.00;;;18.40;52.90;;;;;;4152868;28;20046;-67
2022/04/22 12:35:15;;;;;;;0.00;0.00;;;18.60;53.90;;;;;;4156108;28;20527;-67
2022/04/22 12:37:51;;;;;;;0.00;0.00;;;18.70;53.90;;;;;;4166850;28;20037;-70
2022/04/22 12:40:18;;;;;;;0.00;0.00;;;18.80;54.20;;;;;;4149984;28;20053;-69
2022/04/22 12:42:42;;;;;;;0.00;0.00;;;18.90;54.10;;;;;;4152688;28;20046;-68
2022/04/22 12:53:41;;;;;;;0.00;0.00;;;18.30;54.80;;;;;;4149603;28;20503;-67
2022/04/22 12:56:05;;;;;;;0.00;0.00;;;18.30;55.70;;;;;;4136263;28;20069;-69
2022/04/22 12:58:32;;;;;;;0.00;0.00;;;18.60;55.50;;;;;;4136114;28;20618;-68
2022/04/22 13:00:59;;;;;;;0.00;0.00;;;18.80;54.80;;;;;;4150067;28;20488;-69
2022/04/22 13:03:21;;;;;;;0.00;0.00;;;18.80;55.10;;;;;;4142990;28;20053;-71
2022/04/22 13:05:46;;;;;;;0.00;0.00;;;19.00;55.00;;;;;;4166516;28;20065;-72
2022/04/22 13:08:09;;;;;;;0.00;0.00;;;19.10;54.20;;;;;;4155656;28;20058;-71
2022/04/22 13:10:31;;;;;;;0.00;0.00;;;19.30;53.40;;;;;;4166207;28;20411;-70
2022/04/22 13:12:53;;;;;;;0.00;0.00;;;19.30;53.30;;;;;;4165987;28;20058;-70
2022/04/22 13:15:20;;;;;;;0.00;0.00;;;19.40;53.20;;;;;;4152168;28;20464;-69
2022/04/22 13:17:49;;;;;;;0.00;0.00;;;19.50;52.90;;;;;;4152665;28;20074;-69
2022/04/22 13:20:13;;;;;;;0.00;0.00;;;19.50;52.70;;;;;;4168697;28;20038;-68
2022/04/22 13:22:35;;;;;;;0.00;0.00;;;19.40;53.40;;;;;;4168777;28;20060;-71
2022/04/22 13:25:06;;;;;;;0.00;0.00;;;19.40;53.30;;;;;;4169112;28;20103;-69
2022/04/22 13:27:30;;;;;;;0.00;0.00;;;19.50;52.80;;;;;;4169475;28;20452;-69
2022/04/22 13:29:52;;;;;;;0.00;0.00;;;19.70;52.80;;;;;;4156051;28;20104;-71
2022/04/22 13:32:14;;;;;;;0.00;0.00;;;19.80;52.50;;;;;;4156581;28;20041;-70
2022/04/22 13:34:36;;;;;;;0.00;0.00;;;19.80;52.80;;;;;;4153132;28;20069;-68
2022/04/22 13:37:00;;;;;;;0.00;0.00;;;19.90;52.80;;;;;;4154033;28;20145;-70
2022/04/22 13:39:22;;;;;;;0.00;0.00;;;19.80;52.50;;;;;;4153151;28;20134;-68
2022/04/22 13:41:44;;;;;;;0.00;0.00;;;19.70;51.50;;;;;;4152852;28;20048;-70
2022/04/22 13:44:13;;;;;;;0.00;0.00;;;19.20;51.90;;;;;;4163338;28;20072;-69
2022/04/22 13:52:26;;;;;;;0.00;0.00;;;19.30;51.40;;;;;;4151673;28;20057;-70
2022/04/22 13:54:52;;;;;;;0.00;0.00;;;19.50;51.70;;;;;;4138180;28;20076;-71